Time;durP1;ratioP1;P1;durP2;ratioP2;P2;SDS_P1;SDS_P2;PMS_P1;PMS_P2;Temp;Humidity;BMP_temperature;BMP_pressure;BME280_temperature;BME280_humidity;BME280_pressure;Samples;Min_cycle;Max_cycle;Signal;HPM_P1;HPM_P2
2023/09/16 00:01:20;;;;;;;11.88;5.95;;;;;;;;;;6247383;28;20412;-61
2023/09/16 00:04:23;;;;;;;13.30;6.13;;;;;;;;;;6242996;28;20465;-62
2023/09/16 00:07:24;;;;;;;13.07;6.22;;;;;;;;;;6241842;28;20053;-62
2023/09/16 00:10:24;;;;;;;13.13;6.55;;;;;;;;;;6243780;28;20045;-61
2023/09/16 00:13:25;;;;;;;14.65;6.25;;;;;;;;;;6244281;28;20493;-61
2023/09/16 00:16:26;;;;;;;12.43;5.72;;;;;;;;;;6243147;28;20061;-61
2023/09/16 00:19:27;;;;;;;14.68;6.32;;;;;;;;;;6243726;28;20052;-62
2023/09/16 00:22:28;;;;;;;16.02;6.00;;;;;;;;;;6241769;28;20428;-61
2023/09/16 00:25:28;;;;;;;13.53;6.30;;;;;;;;;;6243034;28;20140;-61
2023/09/16 00:28:30;;;;;;;12.98;5.75;;;;;;;;;;6242601;28;20896;-61
2023/09/16 00:31:33;;;;;;;11.27;5.53;;;;;;;;;;6241788;28;20037;-62
2023/09/16 00:34:33;;;;;;;11.13;5.38;;;;;;;;;;6242288;28;20041;-62
2023/09/16 00:37:34;;;;;;;13.25;5.70;;;;;;;;;;6242247;28;20053;-61
2023/09/16 00:40:35;;;;;;;13.27;6.57;;;;;;;;;;6242828;28;20091;-62
2023/09/16 00:43:36;;;;;;;14.57;6.05;;;;;;;;;;6241353;28;20045;-62
2023/09/16 00:46:37;;;;;;;12.65;6.07;;;;;;;;;;6241803;28;20061;-62
2023/09/16 00:49:38;;;;;;;14.90;6.25;;;;;;;;;;6242969;28;20052;-61
2023/09/16 00:52:44;;;;;;;14.50;6.72;;;;;;;;;;6240608;28;20041;-61
2023/09/16 00:55:46;;;;;;;15.45;6.18;;;;;;;;;;6258185;28;20094;-61
2023/09/16 00:58:47;;;;;;;12.77;6.15;;;;;;;;;;6241852;28;20076;-61
2023/09/16 01:01:50;;;;;;;15.67;6.77;;;;;;;;;;6241960;28;20045;-61
2023/09/16 01:04:50;;;;;;;;;;;;;;;;;;6243273;28;20041;-61
2023/09/16 01:07:51;;;;;;;12.80;5.78;;;;;;;;;;6240011;28;19928;-62
2023/09/16 01:10:52;;;;;;;13.70;6.43;;;;;;;;;;6241635;28;20492;-61
2023/09/16 01:13:53;;;;;;;14.07;5.82;;;;;;;;;;6241267;28;20407;-61
2023/09/16 01:17:02;;;;;;;13.07;6.35;;;;;;;;;;6241781;28;20037;-61
2023/09/16 01:20:11;;;;;;;13.32;6.40;;;;;;;;;;6241693;28;20049;-61
2023/09/16 01:23:11;;;;;;;12.60;6.18;;;;;;;;;;6238620;28;20399;-60
2023/09/16 01:26:12;;;;;;;12.13;6.22;;;;;;;;;;6243104;28;20052;-60
2023/09/16 01:29:14;;;;;;;11.02;5.95;;;;;;;;;;6241343;28;20400;-60
2023/09/16 01:32:18;;;;;;;11.00;5.63;;;;;;;;;;6240435;28;20060;-61
2023/09/16 01:35:21;;;;;;;13.40;6.25;;;;;;;;;;6240107;28;20122;-60
2023/09/16 01:38:23;;;;;;;13.32;5.70;;;;;;;;;;6241044;28;20036;-61
2023/09/16 01:41:24;;;;;;;13.20;5.38;;;;;;;;;;6238061;28;20057;-61
2023/09/16 01:44:25;;;;;;;12.93;6.05;;;;;;;;;;6240294;28;20041;-61
2023/09/16 01:47:25;;;;;;;10.43;5.45;;;;;;;;;;6241670;28;20052;-62
2023/09/16 01:50:26;;;;;;;12.05;5.63;;;;;;;;;;6238604;28;20052;-60
2023/09/16 01:53:27;;;;;;;11.60;5.55;;;;;;;;;;6241130;28;20059;-62
2023/09/16 01:56:27;;;;;;;13.35;5.90;;;;;;;;;;6240709;28;20506;-61
2023/09/16 01:59:28;;;;;;;12.43;5.57;;;;;;;;;;6248563;28;20037;-61
2023/09/16 02:02:28;;;;;;;10.95;6.47;;;;;;;;;;6246433;28;20041;-58
2023/09/16 02:05:29;;;;;;;11.18;6.07;;;;;;;;;;6240724;28;20037;-61
2023/09/16 02:08:30;;;;;;;10.93;5.88;;;;;;;;;;6240792;28;20041;-61
2023/09/16 02:11:33;;;;;;;12.88;5.80;;;;;;;;;;6240367;28;20038;-61
2023/09/16 02:14:41;;;;;;;12.10;5.57;;;;;;;;;;6238916;28;20442;-61
2023/09/16 02:17:41;;;;;;;11.35;5.65;;;;;;;;;;6237904;28;20045;-60
2023/09/16 02:20:42;;;;;;;12.05;6.40;;;;;;;;;;6241934;28;20076;-60
2023/09/16 02:23:43;;;;;;;12.50;5.70;;;;;;;;;;6240465;28;20037;-61
2023/09/16 02:26:44;;;;;;;16.20;6.07;;;;;;;;;;6239249;28;20041;-61
2023/09/16 02:29:48;;;;;;;13.50;5.80;;;;;;;;;;6237672;28;20045;-61
2023/09/16 02:32:48;;;;;;;13.23;5.90;;;;;;;;;;6239253;28;20090;-62
2023/09/16 02:35:49;;;;;;;17.27;6.38;;;;;;;;;;6239925;28;20049;-61
2023/09/16 02:38:51;;;;;;;12.05;6.25;;;;;;;;;;6237625;28;20065;-61
2023/09/16 02:41:52;;;;;;;10.63;5.75;;;;;;;;;;6239805;28;20519;-61
2023/09/16 02:44:53;;;;;;;13.63;6.65;;;;;;;;;;6238793;28;20041;-61
2023/09/16 02:47:53;;;;;;;12.60;5.68;;;;;;;;;;6240176;28;20042;-61
2023/09/16 02:50:54;;;;;;;10.70;5.65;;;;;;;;;;6240587;28;20073;-61
2023/09/16 02:53:55;;;;;;;12.25;5.55;;;;;;;;;;6248505;28;20052;-61
2023/09/16 02:56:55;;;;;;;11.75;5.35;;;;;;;;;;6243207;28;20102;-61
2023/09/16 02:59:56;;;;;;;11.20;5.60;;;;;;;;;;6250533;28;20037;-61
2023/09/16 03:02:56;;;;;;;10.85;5.65;;;;;;;;;;6238924;28;20039;-61
2023/09/16 03:05:57;;;;;;;9.70;5.63;;;;;;;;;;6239788;28;20053;-60
2023/09/16 03:08:58;;;;;;;11.27;5.82;;;;;;;;;;6239083;28;20033;-61
2023/09/16 03:11:58;;;;;;;12.68;5.63;;;;;;;;;;6240037;28;20045;-59
2023/09/16 03:14:59;;;;;;;9.82;5.50;;;;;;;;;;6239613;28;20045;-61
2023/09/16 03:17:59;;;;;;;11.45;5.50;;;;;;;;;;6240232;28;20049;-59
2023/09/16 03:21:00;;;;;;;12.15;6.20;;;;;;;;;;6242202;28;20050;-61
2023/09/16 03:24:01;;;;;;;10.13;5.28;;;;;;;;;;6245193;28;20918;-61
2023/09/16 03:27:01;;;;;;;9.65;5.55;;;;;;;;;;6243961;28;20050;-60
2023/09/16 03:30:02;;;;;;;9.82;5.30;;;;;;;;;;6242324;28;20570;-61
2023/09/16 03:33:03;;;;;;;11.82;5.15;;;;;;;;;;6242880;28;20476;-60
2023/09/16 03:36:04;;;;;;;8.82;4.93;;;;;;;;;;6243919;28;20057;-61
2023/09/16 03:39:06;;;;;;;11.70;5.35;;;;;;;;;;6241335;28;20519;-59
2023/09/16 03:42:08;;;;;;;10.90;4.97;;;;;;;;;;6242596;28;20049;-60
2023/09/16 03:45:09;;;;;;;11.55;5.30;;;;;;;;;;6244661;28;20033;-60
2023/09/16 03:48:09;;;;;;;10.50;5.45;;;;;;;;;;6243798;28;20045;-61
2023/09/16 03:51:12;;;;;;;10.27;5.68;;;;;;;;;;6224683;28;20041;-60
2023/09/16 03:54:13;;;;;;;;;;;;;;;;;;6249301;28;20051;-61
2023/09/16 03:57:13;;;;;;;13.15;6.35;;;;;;;;;;6253336;28;19925;-59
2023/09/16 04:00:14;;;;;;;10.38;5.53;;;;;;;;;;6249059;28;20053;-61
2023/09/16 04:03:15;;;;;;;9.57;5.35;;;;;;;;;;6243857;28;20520;-60
2023/09/16 04:06:15;;;;;;;10.65;5.25;;;;;;;;;;6243419;28;20053;-59
2023/09/16 04:09:16;;;;;;;11.35;5.50;;;;;;;;;;6243741;28;20495;-55
2023/09/16 04:12:16;;;;;;;8.80;5.10;;;;;;;;;;6243317;28;20067;-61
2023/09/16 04:15:17;;;;;;;10.25;5.30;;;;;;;;;;6242410;28;20826;-60
2023/09/16 04:18:18;;;;;;;9.02;5.07;;;;;;;;;;6239780;28;20681;-60
2023/09/16 04:21:19;;;;;;;10.07;5.53;;;;;;;;;;6241383;28;20481;-61
2023/09/16 04:24:20;;;;;;;10.05;5.88;;;;;;;;;;6243731;28;20099;-60
2023/09/16 04:27:20;;;;;;;9.95;5.47;;;;;;;;;;6242970;28;20053;-60
2023/09/16 04:30:21;;;;;;;10.98;6.05;;;;;;;;;;6242772;28;20444;-61
2023/09/16 04:33:22;;;;;;;11.52;5.93;;;;;;;;;;6242246;28;20444;-62
2023/09/16 04:36:22;;;;;;;10.23;5.60;;;;;;;;;;6242566;28;20049;-60
2023/09/16 04:39:23;;;;;;;13.38;5.93;;;;;;;;;;6242706;28;20481;-61
2023/09/16 04:42:30;;;;;;;10.73;6.18;;;;;;;;;;6242194;28;20045;-60
2023/09/16 04:45:31;;;;;;;12.70;6.10;;;;;;;;;;6242594;28;20481;-61
2023/09/16 04:48:31;;;;;;;9.85;6.00;;;;;;;;;;6239744;28;20164;-61
2023/09/16 04:51:33;;;;;;;10.02;5.93;;;;;;;;;;6242693;28;20038;-59
2023/09/16 04:54:35;;;;;;;15.57;6.53;;;;;;;;;;6253901;28;20044;-60
2023/09/16 04:57:36;;;;;;;11.60;6.60;;;;;;;;;;6241884;28;20297;-59
2023/09/16 05:00:38;;;;;;;11.30;6.45;;;;;;;;;;6247034;28;20569;-61
2023/09/16 05:03:38;;;;;;;15.07;8.18;;;;;;;;;;6249109;28;20041;-61
2023/09/16 05:06:39;;;;;;;12.95;6.57;;;;;;;;;;6238844;28;20053;-61
2023/09/16 05:09:39;;;;;;;13.40;7.05;;;;;;;;;;6248368;28;20455;-60
2023/09/16 05:12:40;;;;;;;14.07;6.95;;;;;;;;;;6242424;28;20873;-60
2023/09/16 05:15:41;;;;;;;13.23;6.80;;;;;;;;;;6245395;28;20077;-61
2023/09/16 05:18:41;;;;;;;18.70;7.45;;;;;;;;;;6254777;28;20060;-61
2023/09/16 05:21:42;;;;;;;15.93;8.23;;;;;;;;;;6240742;28;20059;-61
2023/09/16 05:24:42;;;;;;;20.13;7.57;;;;;;;;;;6249744;28;20450;-61
2023/09/16 05:27:44;;;;;;;19.13;7.95;;;;;;;;;;6254536;28;20048;-60
2023/09/16 05:30:44;;;;;;;15.88;7.47;;;;;;;;;;6264773;28;20044;-61
2023/09/16 05:33:45;;;;;;;14.30;7.05;;;;;;;;;;6244725;28;20045;-61
2023/09/16 05:36:45;;;;;;;15.18;7.03;;;;;;;;;;6253345;28;20049;-61
2023/09/16 05:39:46;;;;;;;13.07;6.15;;;;;;;;;;6241649;28;20488;-61
2023/09/16 05:42:47;;;;;;;16.40;6.40;;;;;;;;;;6243964;28;20080;-60
2023/09/16 05:45:51;;;;;;;12.73;6.55;;;;;;;;;;6242219;28;20709;-61
2023/09/16 05:48:56;;;;;;;12.80;6.13;;;;;;;;;;6245443;28;20045;-61
2023/09/16 05:51:57;;;;;;;15.10;6.82;;;;;;;;;;6240483;28;20041;-61
2023/09/16 05:54:57;;;;;;;15.10;6.53;;;;;;;;;;6238743;28;20047;-61
2023/09/16 05:57:58;;;;;;;11.00;6.13;;;;;;;;;;6238669;28;20037;-61
2023/09/16 06:00:58;;;;;;;12.18;6.00;;;;;;;;;;6240299;28;20455;-61
2023/09/16 06:03:59;;;;;;;12.68;6.38;;;;;;;;;;6239619;28;20049;-60
2023/09/16 06:06:59;;;;;;;10.75;6.10;;;;;;;;;;6241139;28;20038;-61
2023/09/16 06:10:00;;;;;;;14.18;6.72;;;;;;;;;;6239446;28;20053;-60
2023/09/16 06:13:00;;;;;;;12.98;7.65;;;;;;;;;;6237383;28;20036;-60
2023/09/16 06:16:01;;;;;;;10.07;6.32;;;;;;;;;;6235748;28;20041;-61
2023/09/16 06:19:02;;;;;;;11.57;6.70;;;;;;;;;;6237302;28;20059;-61
2023/09/16 06:22:03;;;;;;;12.27;7.10;;;;;;;;;;6238152;28;20297;-60
2023/09/16 06:25:03;;;;;;;11.98;6.82;;;;;;;;;;6236664;28;20105;-61
2023/09/16 06:28:04;;;;;;;13.30;6.75;;;;;;;;;;6238809;28;20048;-61
2023/09/16 06:31:05;;;;;;;11.63;6.60;;;;;;;;;;6240630;28;20405;-61
2023/09/16 06:34:06;;;;;;;19.17;8.23;;;;;;;;;;6239927;28;20049;-61
2023/09/16 06:37:07;;;;;;;10.32;6.20;;;;;;;;;;6237867;28;20158;-61
2023/09/16 06:40:08;;;;;;;15.75;7.65;;;;;;;;;;6241150;28;20049;-59
2023/09/16 06:43:08;;;;;;;12.32;6.40;;;;;;;;;;6240710;28;20492;-61
2023/09/16 06:46:09;;;;;;;15.50;6.97;;;;;;;;;;6237127;28;20084;-60
2023/09/16 06:49:09;;;;;;;11.50;6.05;;;;;;;;;;6239599;28;20068;-63
2023/09/16 06:52:10;;;;;;;12.02;6.88;;;;;;;;;;6244515;28;20069;-61
2023/09/16 06:55:11;;;;;;;10.95;5.85;;;;;;;;;;6249896;28;20045;-61
2023/09/16 06:58:12;;;;;;;12.07;6.75;;;;;;;;;;6244619;28;20055;-60
2023/09/16 07:01:12;;;;;;;16.83;7.20;;;;;;;;;;6245444;28;20052;-59
2023/09/16 07:04:13;;;;;;;13.43;6.00;;;;;;;;;;6241909;28;20048;-61
2023/09/16 07:07:14;;;;;;;9.75;5.68;;;;;;;;;;6242904;28;20091;-58
2023/09/16 07:10:15;;;;;;;10.50;5.85;;;;;;;;;;6245255;28;20494;-61
2023/09/16 07:13:15;;;;;;;10.52;5.85;;;;;;;;;;6242683;28;20076;-61
2023/09/16 07:16:19;;;;;;;10.80;6.05;;;;;;;;;;6242171;28;20045;-59
2023/09/16 07:19:19;;;;;;;10.95;5.75;;;;;;;;;;6243657;28;20045;-58
2023/09/16 07:22:20;;;;;;;9.48;5.90;;;;;;;;;;6244808;28;20053;-61
2023/09/16 07:25:21;;;;;;;11.25;5.95;;;;;;;;;;6244597;28;20411;-62
2023/09/16 07:28:26;;;;;;;10.03;5.60;;;;;;;;;;6244576;28;20516;-61
2023/09/16 07:31:26;;;;;;;12.35;6.25;;;;;;;;;;6244116;28;20103;-61
2023/09/16 07:34:27;;;;;;;13.07;6.30;;;;;;;;;;6243864;28;20045;-61
2023/09/16 07:37:27;;;;;;;9.98;5.45;;;;;;;;;;6244012;28;20390;-61
2023/09/16 07:40:29;;;;;;;7.95;5.60;;;;;;;;;;6242965;28;20049;-60
2023/09/16 07:43:29;;;;;;;10.52;5.38;;;;;;;;;;6257042;28;20037;-61
2023/09/16 07:46:30;;;;;;;9.43;5.68;;;;;;;;;;6242363;28;20055;-60
2023/09/16 07:49:31;;;;;;;10.00;5.40;;;;;;;;;;6242645;28;20046;-60
2023/09/16 07:52:31;;;;;;;14.07;6.65;;;;;;;;;;6242830;28;20115;-59
2023/09/16 07:55:32;;;;;;;11.40;6.25;;;;;;;;;;6244160;28;20577;-60
2023/09/16 07:58:33;;;;;;;12.48;6.07;;;;;;;;;;6245963;28;20625;-61
2023/09/16 08:01:33;;;;;;;9.10;5.95;;;;;;;;;;6243623;28;20041;-60
2023/09/16 08:04:34;;;;;;;9.13;5.55;;;;;;;;;;6249767;28;20049;-61
2023/09/16 08:07:35;;;;;;;12.80;5.60;;;;;;;;;;6243286;28;20437;-60
2023/09/16 08:10:36;;;;;;;9.52;5.82;;;;;;;;;;6252822;28;20044;-60
2023/09/16 08:13:36;;;;;;;11.05;5.82;;;;;;;;;;6243459;28;20057;-61
2023/09/16 08:16:37;;;;;;;11.98;6.15;;;;;;;;;;6247866;28;20057;-61
2023/09/16 08:19:37;;;;;;;10.68;5.90;;;;;;;;;;6249107;28;20050;-60
2023/09/16 08:22:38;;;;;;;9.52;6.07;;;;;;;;;;6244839;28;20808;-61
2023/09/16 08:25:38;;;;;;;9.38;5.45;;;;;;;;;;6244341;28;20060;-61
2023/09/16 08:28:39;;;;;;;10.65;5.82;;;;;;;;;;6242095;28;20041;-61
2023/09/16 08:31:40;;;;;;;11.23;6.00;;;;;;;;;;6241182;28;20050;-61
2023/09/16 08:34:40;;;;;;;8.98;5.45;;;;;;;;;;6243066;28;20053;-60
2023/09/16 08:37:41;;;;;;;10.20;5.80;;;;;;;;;;6242844;28;20452;-60
2023/09/16 08:40:42;;;;;;;7.87;5.40;;;;;;;;;;6240434;28;20477;-61
2023/09/16 08:43:43;;;;;;;9.20;5.63;;;;;;;;;;6236297;28;20045;-61
2023/09/16 08:46:48;;;;;;;10.35;6.13;;;;;;;;;;6242927;28;20124;-60
2023/09/16 08:49:52;;;;;;;9.32;5.68;;;;;;;;;;6240809;28;20049;-61
2023/09/16 08:52:59;;;;;;;10.48;5.50;;;;;;;;;;6241407;28;20049;-59
2023/09/16 08:55:59;;;;;;;7.75;5.03;;;;;;;;;;6242370;28;20045;-60
2023/09/16 08:59:00;;;;;;;10.30;5.40;;;;;;;;;;6241876;28;20077;-61
2023/09/16 09:02:01;;;;;;;9.53;5.40;;;;;;;;;;6243335;28;20098;-62
2023/09/16 09:05:06;;;;;;;8.93;5.50;;;;;;;;;;6241923;28;20499;-62
2023/09/16 09:08:09;;;;;;;8.88;5.18;;;;;;;;;;6241701;28;20508;-61
2023/09/16 09:11:14;;;;;;;12.27;5.38;;;;;;;;;;6242159;28;20050;-61
2023/09/16 09:14:17;;;;;;;8.50;4.97;;;;;;;;;;6243064;28;20053;-61
2023/09/16 09:17:18;;;;;;;9.38;5.13;;;;;;;;;;6240301;28;20617;-61
2023/09/16 09:20:21;;;;;;;11.40;6.10;;;;;;;;;;6240288;28;20092;-62
2023/09/16 09:23:21;;;;;;;13.80;5.45;;;;;;;;;;6239755;28;20662;-60
2023/09/16 09:26:22;;;;;;;11.20;5.30;;;;;;;;;;6246513;28;20049;-58
2023/09/16 09:29:23;;;;;;;9.57;5.30;;;;;;;;;;6242944;28;20045;-62
2023/09/16 09:32:31;;;;;;;10.30;5.20;;;;;;;;;;6241231;28;20038;-61
2023/09/16 09:35:32;;;;;;;8.85;4.93;;;;;;;;;;6244759;28;20063;-60
2023/09/16 09:38:33;;;;;;;10.37;5.30;;;;;;;;;;6240833;28;20053;-61
2023/09/16 09:41:46;;;;;;;7.70;4.70;;;;;;;;;;6240100;28;20046;-61
2023/09/16 09:44:47;;;;;;;12.02;5.10;;;;;;;;;;6248822;28;20131;-61
2023/09/16 09:47:50;;;;;;;7.23;4.83;;;;;;;;;;6259315;28;20561;-62
2023/09/16 09:50:51;;;;;;;9.95;4.68;;;;;;;;;;6240606;28;20074;-61
2023/09/16 09:53:51;;;;;;;8.07;4.67;;;;;;;;;;6244020;28;20069;-62
2023/09/16 09:56:52;;;;;;;10.60;5.00;;;;;;;;;;6260451;28;20099;-61
2023/09/16 09:59:57;;;;;;;10.57;4.73;;;;;;;;;;6260572;28;20067;-63
2023/09/16 10:03:00;;;;;;;8.90;5.25;;;;;;;;;;6258850;28;20072;-62
2023/09/16 10:06:14;;;;;;;11.30;5.15;;;;;;;;;;6262282;28;20060;-62
2023/09/16 10:09:15;;;;;;;9.13;5.30;;;;;;;;;;6244628;28;20057;-62
2023/09/16 10:12:15;;;;;;;11.80;5.67;;;;;;;;;;6250930;28;20479;-60
2023/09/16 10:15:16;;;;;;;11.20;4.90;;;;;;;;;;6255618;28;20409;-60
2023/09/16 10:18:18;;;;;;;9.40;5.47;;;;;;;;;;6262070;28;20037;-61
2023/09/16 10:21:19;;;;;;;8.90;5.55;;;;;;;;;;6255813;28;20076;-61
2023/09/16 10:24:20;;;;;;;9.43;5.85;;;;;;;;;;6256235;28;20520;-61
2023/09/16 10:27:27;;;;;;;11.27;5.43;;;;;;;;;;6247331;28;20057;-61
2023/09/16 10:30:30;;;;;;;10.23;5.18;;;;;;;;;;6238778;28;20497;-59
2023/09/16 10:33:30;;;;;;;10.20;5.90;;;;;;;;;;6244678;28;20069;-62
2023/09/16 10:36:35;;;;;;;9.93;5.70;;;;;;;;;;6254375;28;20427;-61
2023/09/16 10:39:38;;;;;;;10.05;5.40;;;;;;;;;;6252549;28;20463;-61
2023/09/16 10:42:40;;;;;;;9.63;6.07;;;;;;;;;;6250959;28;20048;-62
2023/09/16 10:45:41;;;;;;;10.55;5.68;;;;;;;;;;6255115;28;20041;-62
2023/09/16 10:48:42;;;;;;;;;;;;;;;;;;6258829;28;20042;-61
2023/09/16 10:51:42;;;;;;;8.85;5.68;;;;;;;;;;6249356;28;20422;-61
2023/09/16 10:55:25;;;;;;;12.00;6.23;;;;;;;;;;6249033;28;20049;-60
2023/09/16 10:58:47;;;;;;;8.75;5.65;;;;;;;;;;6174788;28;20062;-60
2023/09/16 11:01:58;;;;;;;11.20;6.75;;;;;;;;;;6190370;28;20043;-61
2023/09/16 11:04:59;;;;;;;10.23;6.30;;;;;;;;;;6250922;28;20046;-61
2023/09/16 11:08:00;;;;;;;10.13;6.25;;;;;;;;;;6251981;28;20729;-61
2023/09/16 11:11:00;;;;;;;13.07;6.57;;;;;;;;;;6261902;28;20094;-60
2023/09/16 11:14:03;;;;;;;12.17;5.90;;;;;;;;;;6262476;28;20045;-60
2023/09/16 11:17:15;;;;;;;15.40;7.05;;;;;;;;;;6262738;28;20053;-61
2023/09/16 11:20:21;;;;;;;10.52;6.50;;;;;;;;;;6249361;28;20041;-60
2023/09/16 11:23:23;;;;;;;11.77;6.78;;;;;;;;;;6255213;28;20390;-60
2023/09/16 11:26:24;;;;;;;10.38;7.18;;;;;;;;;;6248947;28;20915;-60
2023/09/16 11:29:25;;;;;;;11.43;7.30;;;;;;;;;;6254546;28;20038;-61
2023/09/16 11:32:26;;;;;;;10.90;6.78;;;;;;;;;;6256804;28;20045;-60
2023/09/16 11:35:28;;;;;;;11.00;6.57;;;;;;;;;;6256488;28;20413;-61
2023/09/16 11:38:29;;;;;;;11.88;6.18;;;;;;;;;;6247002;28;20155;-61
2023/09/16 11:41:29;;;;;;;12.53;6.73;;;;;;;;;;6264443;28;20068;-61
2023/09/16 11:44:30;;;;;;;13.17;6.57;;;;;;;;;;6266901;28;20078;-61
2023/09/16 11:47:32;;;;;;;12.67;6.90;;;;;;;;;;6267069;28;20045;-61
2023/09/16 11:50:32;;;;;;;11.35;6.75;;;;;;;;;;6267219;28;20766;-61
2023/09/16 11:53:33;;;;;;;13.87;7.10;;;;;;;;;;6257903;28;20068;-61
2023/09/16 11:56:40;;;;;;;9.53;6.00;;;;;;;;;;6257599;28;20155;-63
2023/09/16 11:59:40;;;;;;;12.57;7.13;;;;;;;;;;6261744;28;20048;-61
2023/09/16 12:02:42;;;;;;;11.87;6.50;;;;;;;;;;6257480;28;20090;-61
2023/09/16 12:05:42;;;;;;;9.93;6.30;;;;;;;;;;6267058;28;20607;-60
2023/09/16 12:08:45;;;;;;;11.10;6.40;;;;;;;;;;6266489;28;20069;-60
2023/09/16 12:11:49;;;;;;;11.70;6.07;;;;;;;;;;6267615;28;20040;-61
2023/09/16 12:14:50;;;;;;;13.50;6.93;;;;;;;;;;6279938;28;20176;-60
2023/09/16 12:17:50;;;;;;;10.73;6.00;;;;;;;;;;6263187;28;20053;-61
2023/09/16 12:20:54;;;;;;;12.67;7.77;;;;;;;;;;6252438;28;20144;-61
2023/09/16 12:23:54;;;;;;;12.05;7.45;;;;;;;;;;6258233;28;20079;-60
2023/09/16 12:26:55;;;;;;;12.67;6.90;;;;;;;;;;6264617;28;20053;-61
2023/09/16 12:29:56;;;;;;;9.27;6.90;;;;;;;;;;6240248;28;20425;-61
2023/09/16 12:32:56;;;;;;;12.63;7.23;;;;;;;;;;6243254;28;20459;-60
2023/09/16 12:35:57;;;;;;;10.33;7.00;;;;;;;;;;6242306;28;20046;-60
2023/09/16 12:39:00;;;;;;;11.07;7.13;;;;;;;;;;6240370;28;20049;-61
2023/09/16 12:42:02;;;;;;;9.60;6.85;;;;;;;;;;6242474;28;20302;-60
2023/09/16 12:45:03;;;;;;;11.98;7.50;;;;;;;;;;6243363;28;20135;-60
2023/09/16 12:48:06;;;;;;;11.88;7.28;;;;;;;;;;6241391;28;20060;-61
2023/09/16 12:51:08;;;;;;;12.10;7.25;;;;;;;;;;6242207;28;20045;-60
2023/09/16 12:54:08;;;;;;;12.18;6.93;;;;;;;;;;6241099;28;20053;-61
2023/09/16 12:57:12;;;;;;;9.83;6.77;;;;;;;;;;6243027;28;20049;-60
2023/09/16 13:00:19;;;;;;;9.65;6.15;;;;;;;;;;6243169;28;20187;-60
2023/09/16 13:03:23;;;;;;;10.32;6.22;;;;;;;;;;6242301;28;20049;-60
2023/09/16 13:06:24;;;;;;;10.63;6.40;;;;;;;;;;6241739;28;20060;-60
2023/09/16 13:09:30;;;;;;;10.23;6.37;;;;;;;;;;6241977;28;20489;-60
2023/09/16 13:12:31;;;;;;;9.95;6.07;;;;;;;;;;6240268;28;20132;-60
2023/09/16 13:15:34;;;;;;;;;;;;;;;;;;6242486;28;20036;-61
2023/09/16 13:18:38;;;;;;;12.20;6.57;;;;;;;;;;6241197;28;20009;-60
2023/09/16 13:21:39;;;;;;;11.63;6.90;;;;;;;;;;6242224;28;20037;-60
2023/09/16 13:24:45;;;;;;;11.80;6.70;;;;;;;;;;6241305;28;20046;-60
2023/09/16 13:27:46;;;;;;;10.88;7.25;;;;;;;;;;6242019;28;20049;-60
2023/09/16 13:30:48;;;;;;;15.20;10.00;;;;;;;;;;6252774;28;20048;-60
2023/09/16 13:33:53;;;;;;;10.57;6.38;;;;;;;;;;6240719;28;20491;-60
2023/09/16 13:36:54;;;;;;;10.80;7.82;;;;;;;;;;6239323;28;20358;-60
2023/09/16 13:39:55;;;;;;;12.02;6.07;;;;;;;;;;6240959;28;20465;-60
2023/09/16 13:42:56;;;;;;;10.97;6.70;;;;;;;;;;6240880;28;20496;-60
2023/09/16 13:45:57;;;;;;;;;;;;;;;;;;6242265;28;20079;-59
2023/09/16 13:48:57;;;;;;;12.95;7.13;;;;;;;;;;6240823;28;19921;-59
2023/09/16 13:51:58;;;;;;;15.17;10.47;;;;;;;;;;6240180;28;20057;-60
2023/09/16 13:54:58;;;;;;;9.60;5.87;;;;;;;;;;6241603;28;20057;-60
2023/09/16 13:57:59;;;;;;;19.40;9.07;;;;;;;;;;6240064;28;20485;-59
2023/09/16 14:01:00;;;;;;;24.70;16.77;;;;;;;;;;6241508;28;20068;-60
2023/09/16 14:04:01;;;;;;;19.17;11.88;;;;;;;;;;6241752;28;20048;-60
2023/09/16 14:07:02;;;;;;;10.57;5.97;;;;;;;;;;6240791;28;21135;-60
2023/09/16 14:10:03;;;;;;;13.88;7.95;;;;;;;;;;6240410;28;20509;-61
2023/09/16 14:13:06;;;;;;;11.07;7.57;;;;;;;;;;6240408;28;20056;-59
2023/09/16 14:16:07;;;;;;;13.38;8.10;;;;;;;;;;6239885;28;20063;-60
2023/09/16 14:19:07;;;;;;;9.97;6.37;;;;;;;;;;6238945;28;20042;-60
2023/09/16 14:22:08;;;;;;;13.83;7.33;;;;;;;;;;6240437;28;20063;-59
2023/09/16 14:25:09;;;;;;;39.00;23.57;;;;;;;;;;6240956;28;20045;-60
2023/09/16 14:28:10;;;;;;;11.27;7.03;;;;;;;;;;6237645;28;20546;-60
2023/09/16 14:31:10;;;;;;;21.33;13.60;;;;;;;;;;6238941;28;20041;-60
2023/09/16 14:34:11;;;;;;;10.83;6.40;;;;;;;;;;6239759;28;20140;-60
2023/09/16 14:37:12;;;;;;;20.83;7.07;;;;;;;;;;6238748;28;20447;-60
2023/09/16 14:40:13;;;;;;;12.20;8.30;;;;;;;;;;6238805;28;20136;-60
2023/09/16 14:43:13;;;;;;;9.95;6.80;;;;;;;;;;6239586;28;20295;-59
2023/09/16 14:46:15;;;;;;;11.70;7.60;;;;;;;;;;6240439;28;20068;-60
2023/09/16 14:49:15;;;;;;;11.73;6.47;;;;;;;;;;6240855;28;20484;-60
2023/09/16 14:52:16;;;;;;;11.43;7.17;;;;;;;;;;6240564;28;20050;-60
2023/09/16 14:55:17;;;;;;;10.27;6.50;;;;;;;;;;6241128;28;20049;-60
2023/09/16 14:58:20;;;;;;;11.65;6.18;;;;;;;;;;6239300;28;20473;-59
2023/09/16 15:01:20;;;;;;;11.43;7.68;;;;;;;;;;6238111;28;20377;-60
2023/09/16 15:04:21;;;;;;;14.57;6.67;;;;;;;;;;6238050;28;20046;-60
2023/09/16 15:07:23;;;;;;;11.77;6.87;;;;;;;;;;6239606;28;20053;-59
2023/09/16 15:10:23;;;;;;;12.00;7.22;;;;;;;;;;6237573;28;20049;-60
2023/09/16 15:13:24;;;;;;;9.77;6.57;;;;;;;;;;6236880;28;20045;-60
2023/09/16 15:16:24;;;;;;;12.53;7.63;;;;;;;;;;6239893;28;20052;-59
2023/09/16 15:19:25;;;;;;;13.67;7.60;;;;;;;;;;6244792;28;20497;-60
2023/09/16 15:22:26;;;;;;;12.37;8.60;;;;;;;;;;6244695;28;20073;-60
2023/09/16 15:25:26;;;;;;;12.93;8.23;;;;;;;;;;6244368;28;20061;-60
2023/09/16 15:28:27;;;;;;;14.00;8.97;;;;;;;;;;6242294;28;20119;-60
2023/09/16 15:31:27;;;;;;;17.00;9.13;;;;;;;;;;6243780;28;20044;-60
2023/09/16 15:34:28;;;;;;;17.27;9.63;;;;;;;;;;6243394;28;20566;-60
2023/09/16 15:37:30;;;;;;;15.37;8.30;;;;;;;;;;6242483;28;20100;-60
2023/09/16 15:40:31;;;;;;;18.58;9.80;;;;;;;;;;6243385;28;20524;-60
2023/09/16 15:43:32;;;;;;;21.77;9.10;;;;;;;;;;6244017;28;20050;-59
2023/09/16 15:46:33;;;;;;;17.77;9.65;;;;;;;;;;6243691;28;20197;-59
2023/09/16 15:49:34;;;;;;;19.93;11.57;;;;;;;;;;6242064;28;20053;-60
2023/09/16 15:52:35;;;;;;;23.73;12.23;;;;;;;;;;6241352;28;20049;-60
2023/09/16 15:55:37;;;;;;;21.00;11.25;;;;;;;;;;6244251;28;20481;-60
2023/09/16 15:58:38;;;;;;;19.42;10.48;;;;;;;;;;6243857;28;20132;-60
2023/09/16 16:01:40;;;;;;;;;;;;;;;;;;6244875;28;20114;-59
2023/09/16 16:04:41;;;;;;;20.63;10.07;;;;;;;;;;6244732;28;20027;-60
2023/09/16 16:07:41;;;;;;;21.00;11.67;;;;;;;;;;6242541;28;20055;-60
2023/09/16 16:10:42;;;;;;;20.63;11.30;;;;;;;;;;6241026;28;20107;-61
2023/09/16 16:13:43;;;;;;;21.52;11.85;;;;;;;;;;6243027;28;20053;-59
2023/09/16 16:16:44;;;;;;;22.40;11.80;;;;;;;;;;6242885;28;20505;-60
2023/09/16 16:19:45;;;;;;;23.40;13.98;;;;;;;;;;6242832;28;20048;-60
2023/09/16 16:22:46;;;;;;;21.70;14.20;;;;;;;;;;6242815;28;20037;-60
2023/09/16 16:25:48;;;;;;;26.17;15.73;;;;;;;;;;6244548;28;20037;-59
2023/09/16 16:28:50;;;;;;;26.80;15.45;;;;;;;;;;6238323;28;20467;-60
2023/09/16 16:31:51;;;;;;;25.95;15.70;;;;;;;;;;6242188;28;20440;-60
2023/09/16 16:34:51;;;;;;;23.52;14.07;;;;;;;;;;6242908;28;20034;-59
2023/09/16 16:37:52;;;;;;;23.43;14.27;;;;;;;;;;6242856;28;20053;-59
2023/09/16 16:40:53;;;;;;;23.07;13.40;;;;;;;;;;6242190;28;20068;-60
2023/09/16 16:43:53;;;;;;;22.33;13.17;;;;;;;;;;6242822;28;20045;-59
2023/09/16 16:46:55;;;;;;;23.37;13.27;;;;;;;;;;6242823;28;20045;-60
2023/09/16 16:49:55;;;;;;;22.83;12.90;;;;;;;;;;6240188;28;20045;-60
2023/09/16 16:52:56;;;;;;;28.43;13.87;;;;;;;;;;6242089;28;20065;-59
2023/09/16 16:55:57;;;;;;;22.17;12.77;;;;;;;;;;6240263;28;20305;-59
2023/09/16 16:58:57;;;;;;;21.23;12.87;;;;;;;;;;6240549;28;20049;-59
2023/09/16 17:02:03;;;;;;;21.03;12.23;;;;;;;;;;6242516;28;20481;-59
2023/09/16 17:05:05;;;;;;;21.65;12.15;;;;;;;;;;6241565;28;20042;-60
2023/09/16 17:08:05;;;;;;;28.03;13.87;;;;;;;;;;6241745;28;20448;-60
2023/09/16 17:11:06;;;;;;;26.83;16.30;;;;;;;;;;6241730;28;20412;-59
2023/09/16 17:14:06;;;;;;;27.23;15.93;;;;;;;;;;6242264;28;20037;-59
2023/09/16 17:17:07;;;;;;;26.10;15.50;;;;;;;;;;6239901;28;20483;-59
2023/09/16 17:20:08;;;;;;;27.00;15.10;;;;;;;;;;6240639;28;20045;-59
2023/09/16 17:23:11;;;;;;;24.83;14.02;;;;;;;;;;6242677;28;20091;-59
2023/09/16 17:26:13;;;;;;;23.15;14.52;;;;;;;;;;6242133;28;20045;-59
2023/09/16 17:29:13;;;;;;;22.45;13.82;;;;;;;;;;6241399;28;20029;-59
2023/09/16 17:32:14;;;;;;;27.47;14.93;;;;;;;;;;6240631;28;20045;-60
2023/09/16 17:35:14;;;;;;;30.13;18.70;;;;;;;;;;6241723;28;20107;-59
2023/09/16 17:38:15;;;;;;;30.40;16.27;;;;;;;;;;6241422;28;20060;-59
2023/09/16 17:41:18;;;;;;;28.97;13.93;;;;;;;;;;6241093;28;20053;-60
2023/09/16 17:44:18;;;;;;;22.35;13.65;;;;;;;;;;6241544;28;20049;-60
2023/09/16 17:47:19;;;;;;;25.10;14.47;;;;;;;;;;6221762;28;20067;-60
2023/09/16 17:50:19;;;;;;;28.90;15.57;;;;;;;;;;6240815;28;20041;-61
2023/09/16 17:53:20;;;;;;;30.97;17.23;;;;;;;;;;6239561;28;20172;-60
2023/09/16 17:56:21;;;;;;;32.03;18.83;;;;;;;;;;6237561;28;20040;-60